sensor_id;sensor_type;location;lat;lon;timestamp;pressure;altitude;pressure_sealevel;temperature;humidity
64698;BME280;51124;53.394;-6.294;2024-01-30T00:00:16;101693.31;;;14.66;10.53
64698;BME280;51124;53.394;-6.294;2024-01-30T00:02:43;101698.61;;;14.29;10.61
64698;BME280;51124;53.394;-6.294;2024-01-30T00:05:11;101698.49;;;13.93;10.74
64698;BME280;51124;53.394;-6.294;2024-01-30T00:07:38;101686.95;;;14.52;10.80
64698;BME280;51124;53.394;-6.294;2024-01-30T00:10:06;101693.97;;;13.02;10.79
64698;BME280;51124;53.394;-6.294;2024-01-30T00:12:33;101692.80;;;13.37;10.70
64698;BME280;51124;53.394;-6.294;2024-01-30T00:15:01;101702.67;;;14.33;10.56
64698;BME280;51124;53.394;-6.294;2024-01-30T00:17:29;101700.25;;;13.48;10.59
64698;BME280;51124;53.394;-6.294;2024-01-30T00:19:57;101708.23;;;14.36;10.44
64698;BME280;51124;53.394;-6.294;2024-01-30T00:22:24;101717.31;;;16.10;10.96
64698;BME280;51124;53.394;-6.294;2024-01-30T00:24:51;101710.51;;;16.07;11.23
64698;BME280;51124;53.394;-6.294;2024-01-30T00:27:19;101714.43;;;15.77;11.26
64698;BME280;51124;53.394;-6.294;2024-01-30T00:29:46;101715.44;;;17.17;11.29
64698;BME280;51124;53.394;-6.294;2024-01-30T00:32:14;101720.86;;;17.19;11.94
64698;BME280;51124;53.394;-6.294;2024-01-30T00:34:42;101719.83;;;16.37;12.26
64698;BME280;51124;53.394;-6.294;2024-01-30T00:37:09;101722.80;;;16.97;12.33
64698;BME280;51124;53.394;-6.294;2024-01-30T00:39:36;101719.73;;;16.83;12.33
64698;BME280;51124;53.394;-6.294;2024-01-30T00:42:04;101724.67;;;16.99;12.38
64698;BME280;51124;53.394;-6.294;2024-01-30T00:44:34;101726.39;;;17.32;12.70
64698;BME280;51124;53.394;-6.294;2024-01-30T00:47:02;101723.97;;;16.97;12.79
64698;BME280;51124;53.394;-6.294;2024-01-30T00:49:29;101725.56;;;16.71;12.65
64698;BME280;51124;53.394;-6.294;2024-01-30T00:51:57;101720.87;;;16.10;12.76
64698;BME280;51124;53.394;-6.294;2024-01-30T00:54:24;101726.80;;;15.84;12.80
64698;BME280;51124;53.394;-6.294;2024-01-30T00:56:52;101727.90;;;16.47;12.85
64698;BME280;51124;53.394;-6.294;2024-01-30T00:59:20;101733.52;;;15.97;12.92
64698;BME280;51124;53.394;-6.294;2024-01-30T01:01:47;101738.39;;;15.88;12.86
64698;BME280;51124;53.394;-6.294;2024-01-30T01:04:15;101740.02;;;16.43;12.85
64698;BME280;51124;53.394;-6.294;2024-01-30T01:06:43;101740.97;;;15.78;13.06
64698;BME280;51124;53.394;-6.294;2024-01-30T01:09:10;101742.98;;;15.74;12.92
64698;BME280;51124;53.394;-6.294;2024-01-30T01:11:37;101741.47;;;15.74;12.71
64698;BME280;51124;53.394;-6.294;2024-01-30T01:14:05;101742.48;;;16.15;12.92
64698;BME280;51124;53.394;-6.294;2024-01-30T01:16:33;101751.52;;;16.73;12.83
64698;BME280;51124;53.394;-6.294;2024-01-30T01:19:01;101753.23;;;15.91;12.86
64698;BME280;51124;53.394;-6.294;2024-01-30T01:21:29;101750.37;;;14.63;12.60
64698;BME280;51124;53.394;-6.294;2024-01-30T01:23:56;101754.08;;;13.30;12.00
64698;BME280;51124;53.394;-6.294;2024-01-30T01:26:24;101763.29;;;14.41;11.75
64698;BME280;51124;53.394;-6.294;2024-01-30T01:28:51;101764.27;;;14.10;11.61
64698;BME280;51124;53.394;-6.294;2024-01-30T01:31:19;101768.49;;;14.63;11.49
64698;BME280;51124;53.394;-6.294;2024-01-30T01:33:46;101769.51;;;13.57;11.22
64698;BME280;51124;53.394;-6.294;2024-01-30T01:36:15;101776.67;;;13.49;10.96
64698;BME280;51124;53.394;-6.294;2024-01-30T01:38:42;101773.19;;;13.52;10.99
64698;BME280;51124;53.394;-6.294;2024-01-30T01:41:11;101776.32;;;13.82;10.88
64698;BME280;51124;53.394;-6.294;2024-01-30T01:43:38;101776.04;;;13.88;10.64
64698;BME280;51124;53.394;-6.294;2024-01-30T01:46:06;101775.99;;;14.29;10.52
64698;BME280;51124;53.394;-6.294;2024-01-30T01:48:34;101774.79;;;13.72;10.54
64698;BME280;51124;53.394;-6.294;2024-01-30T01:51:01;101775.97;;;14.09;10.73
64698;BME280;51124;53.394;-6.294;2024-01-30T01:53:29;101782.90;;;13.81;10.68
64698;BME280;51124;53.394;-6.294;2024-01-30T01:55:57;101788.05;;;14.02;10.47
64698;BME280;51124;53.394;-6.294;2024-01-30T01:58:25;101788.68;;;14.40;10.44
64698;BME280;51124;53.394;-6.294;2024-01-30T02:00:54;101788.92;;;14.60;10.44
64698;BME280;51124;53.394;-6.294;2024-01-30T02:03:23;101791.21;;;14.37;10.33
64698;BME280;51124;53.394;-6.294;2024-01-30T02:05:51;101785.95;;;14.16;10.42
64698;BME280;51124;53.394;-6.294;2024-01-30T02:08:19;101790.72;;;13.53;10.33
64698;BME280;51124;53.394;-6.294;2024-01-30T02:10:46;101793.49;;;13.74;10.23
64698;BME280;51124;53.394;-6.294;2024-01-30T02:13:14;101795.87;;;13.39;10.27
64698;BME280;51124;53.394;-6.294;2024-01-30T02:15:41;101796.47;;;14.45;10.25
64698;BME280;51124;53.394;-6.294;2024-01-30T02:18:08;101797.63;;;14.02;10.36
64698;BME280;51124;53.394;-6.294;2024-01-30T02:20:37;101798.86;;;13.84;10.27
64698;BME280;51124;53.394;-6.294;2024-01-30T02:23:06;101801.89;;;14.34;10.26
64698;BME280;51124;53.394;-6.294;2024-01-30T02:25:38;101803.02;;;14.73;10.33
64698;BME280;51124;53.394;-6.294;2024-01-30T02:28:06;101809.04;;;12.96;10.44
64698;BME280;51124;53.394;-6.294;2024-01-30T02:30:33;101808.84;;;13.52;10.07
64698;BME280;51124;53.394;-6.294;2024-01-30T02:33:00;101813.11;;;14.08;10.18
64698;BME280;51124;53.394;-6.294;2024-01-30T02:35:28;101813.16;;;13.78;10.26
64698;BME280;51124;53.394;-6.294;2024-01-30T02:37:55;101820.33;;;13.62;10.25
64698;BME280;51124;53.394;-6.294;2024-01-30T02:40:23;101818.51;;;14.11;10.05
64698;BME280;51124;53.394;-6.294;2024-01-30T02:42:50;101819.53;;;14.01;10.08
64698;BME280;51124;53.394;-6.294;2024-01-30T02:45:18;101827.22;;;13.61;10.15
64698;BME280;51124;53.394;-6.294;2024-01-30T02:47:45;101829.61;;;13.82;9.99
64698;BME280;51124;53.394;-6.294;2024-01-30T02:50:13;101836.80;;;13.90;10.23
64698;BME280;51124;53.394;-6.294;2024-01-30T02:52:40;101831.33;;;13.38;10.33
64698;BME280;51124;53.394;-6.294;2024-01-30T02:55:08;101830.34;;;13.96;10.20
64698;BME280;51124;53.394;-6.294;2024-01-30T02:57:36;101833.24;;;14.48;10.21
64698;BME280;51124;53.394;-6.294;2024-01-30T03:00:04;101835.09;;;13.40;10.18
64698;BME280;51124;53.394;-6.294;2024-01-30T03:02:32;101837.27;;;13.41;10.26
64698;BME280;51124;53.394;-6.294;2024-01-30T03:05:00;101830.12;;;14.81;10.14
64698;BME280;51124;53.394;-6.294;2024-01-30T03:07:27;101833.10;;;13.74;10.42
64698;BME280;51124;53.394;-6.294;2024-01-30T03:09:54;101836.52;;;13.27;10.35
64698;BME280;51124;53.394;-6.294;2024-01-30T03:12:22;101844.10;;;14.36;10.10
64698;BME280;51124;53.394;-6.294;2024-01-30T03:14:50;101844.80;;;13.17;10.20
64698;BME280;51124;53.394;-6.294;2024-01-30T03:17:17;101840.71;;;13.81;10.16
64698;BME280;51124;53.394;-6.294;2024-01-30T03:19:45;101844.58;;;14.97;10.10
64698;BME280;51124;53.394;-6.294;2024-01-30T03:22:12;101846.85;;;16.39;10.47
64698;BME280;51124;53.394;-6.294;2024-01-30T03:24:40;101851.72;;;15.08;11.02
64698;BME280;51124;53.394;-6.294;2024-01-30T03:27:10;101853.08;;;14.28;11.17
64698;BME280;51124;53.394;-6.294;2024-01-30T03:29:38;101858.55;;;15.98;11.03
64698;BME280;51124;53.394;-6.294;2024-01-30T03:32:06;101867.91;;;16.07;11.69
64698;BME280;51124;53.394;-6.294;2024-01-30T03:34:34;101874.61;;;16.76;11.76
64698;BME280;51124;53.394;-6.294;2024-01-30T03:37:02;101874.23;;;16.14;12.10
64698;BME280;51124;53.394;-6.294;2024-01-30T03:39:30;101874.62;;;16.17;12.12
64698;BME280;51124;53.394;-6.294;2024-01-30T03:41:57;101880.73;;;16.23;12.16
64698;BME280;51124;53.394;-6.294;2024-01-30T03:44:25;101882.19;;;16.80;12.25
64698;BME280;51124;53.394;-6.294;2024-01-30T03:46:53;101877.03;;;15.93;12.48
64698;BME280;51124;53.394;-6.294;2024-01-30T03:49:20;101875.97;;;15.76;12.56
64698;BME280;51124;53.394;-6.294;2024-01-30T03:51:48;101881.50;;;15.93;12.53
64698;BME280;51124;53.394;-6.294;2024-01-30T03:54:15;101884.74;;;16.21;12.52
64698;BME280;51124;53.394;-6.294;2024-01-30T03:56:43;101881.07;;;16.35;12.57
64698;BME280;51124;53.394;-6.294;2024-01-30T03:59:11;101888.94;;;16.03;12.52
64698;BME280;51124;53.394;-6.294;2024-01-30T04:01:38;101891.22;;;15.60;12.78
64698;BME280;51124;53.394;-6.294;2024-01-30T04:04:06;101889.04;;;16.02;12.47
64698;BME280;51124;53.394;-6.294;2024-01-30T04:06:34;101899.56;;;16.62;12.57
64698;BME280;51124;53.394;-6.294;2024-01-30T04:09:01;101908.34;;;15.63;12.67
64698;BME280;51124;53.394;-6.294;2024-01-30T04:11:29;101910.56;;;15.66;12.72
64698;BME280;51124;53.394;-6.294;2024-01-30T04:13:59;101907.31;;;16.14;12.31
64698;BME280;51124;53.394;-6.294;2024-01-30T04:16:26;101910.89;;;16.35;12.47
64698;BME280;51124;53.394;-6.294;2024-01-30T04:18:54;101912.48;;;16.43;12.37
64698;BME280;51124;53.394;-6.294;2024-01-30T04:21:22;101917.65;;;13.55;12.57
64698;BME280;51124;53.394;-6.294;2024-01-30T04:23:50;101919.22;;;13.79;11.99
64698;BME280;51124;53.394;-6.294;2024-01-30T04:26:18;101920.80;;;13.12;11.72
64698;BME280;51124;53.394;-6.294;2024-01-30T04:28:46;101925.18;;;13.83;11.47
64698;BME280;51124;53.394;-6.294;2024-01-30T04:31:14;101926.95;;;14.18;11.28
64698;BME280;51124;53.394;-6.294;2024-01-30T04:33:42;101930.58;;;13.92;11.18
64698;BME280;51124;53.394;-6.294;2024-01-30T04:36:10;101930.43;;;13.65;10.87
64698;BME280;51124;53.394;-6.294;2024-01-30T04:38:38;101939.56;;;13.70;10.85
64698;BME280;51124;53.394;-6.294;2024-01-30T04:41:05;101947.09;;;13.20;10.65
64698;BME280;51124;53.394;-6.294;2024-01-30T04:43:33;101945.33;;;12.54;10.73
64698;BME280;51124;53.394;-6.294;2024-01-30T04:46:00;101950.22;;;13.69;10.54
64698;BME280;51124;53.394;-6.294;2024-01-30T04:48:28;101951.87;;;13.63;10.50
64698;BME280;51124;53.394;-6.294;2024-01-30T04:50:55;101957.70;;;13.69;10.39
64698;BME280;51124;53.394;-6.294;2024-01-30T04:53:22;101963.34;;;13.94;10.58
64698;BME280;51124;53.394;-6.294;2024-01-30T04:55:50;101963.15;;;12.77;10.55
64698;BME280;51124;53.394;-6.294;2024-01-30T04:58:17;101961.19;;;13.40;10.41
64698;BME280;51124;53.394;-6.294;2024-01-30T05:00:45;101960.82;;;13.97;10.27
64698;BME280;51124;53.394;-6.294;2024-01-30T05:03:12;101961.53;;;13.06;10.33
64698;BME280;51124;53.394;-6.294;2024-01-30T05:05:40;101964.85;;;13.30;10.40
64698;BME280;51124;53.394;-6.294;2024-01-30T05:08:07;101971.63;;;13.88;10.25
64698;BME280;51124;53.394;-6.294;2024-01-30T05:10:35;101970.94;;;13.46;10.25
64698;BME280;51124;53.394;-6.294;2024-01-30T05:13:02;101973.94;;;13.16;10.35
64698;BME280;51124;53.394;-6.294;2024-01-30T05:15:30;101976.42;;;13.41;10.36
64698;BME280;51124;53.394;-6.294;2024-01-30T05:17:57;101982.16;;;13.69;10.24
64698;BME280;51124;53.394;-6.294;2024-01-30T05:20:24;101984.78;;;13.54;10.24
64698;BME280;51124;53.394;-6.294;2024-01-30T05:22:52;101991.58;;;14.08;10.06
64698;BME280;51124;53.394;-6.294;2024-01-30T05:25:19;101995.79;;;13.21;10.04
64698;BME280;51124;53.394;-6.294;2024-01-30T05:27:47;102000.08;;;12.55;10.22
64698;BME280;51124;53.394;-6.294;2024-01-30T05:30:14;102004.03;;;12.71;10.17
64698;BME280;51124;53.394;-6.294;2024-01-30T05:32:42;102005.37;;;13.31;10.05
64698;BME280;51124;53.394;-6.294;2024-01-30T05:35:10;102010.84;;;13.94;10.05
64698;BME280;51124;53.394;-6.294;2024-01-30T05:37:37;102016.20;;;12.98;10.37
64698;BME280;51124;53.394;-6.294;2024-01-30T05:40:06;102012.20;;;13.10;10.17
64698;BME280;51124;53.394;-6.294;2024-01-30T05:42:33;102016.40;;;12.89;10.19
64698;BME280;51124;53.394;-6.294;2024-01-30T05:45:00;102017.88;;;13.58;10.15
64698;BME280;51124;53.394;-6.294;2024-01-30T05:47:28;102022.30;;;13.65;10.09
64698;BME280;51124;53.394;-6.294;2024-01-30T05:49:55;102020.31;;;13.19;10.12
64698;BME280;51124;53.394;-6.294;2024-01-30T05:52:23;102019.85;;;13.48;10.17
64698;BME280;51124;53.394;-6.294;2024-01-30T05:54:50;102023.00;;;12.89;10.27
64698;BME280;51124;53.394;-6.294;2024-01-30T05:57:18;102031.72;;;12.95;10.35
64698;BME280;51124;53.394;-6.294;2024-01-30T05:59:45;102041.49;;;12.97;10.33
64698;BME280;51124;53.394;-6.294;2024-01-30T06:02:13;102045.49;;;11.90;10.37
64698;BME280;51124;53.394;-6.294;2024-01-30T06:04:40;102049.11;;;13.11;10.29
64698;BME280;51124;53.394;-6.294;2024-01-30T06:07:08;102051.98;;;12.97;10.62
64698;BME280;51124;53.394;-6.294;2024-01-30T06:09:35;102050.47;;;13.46;10.17
64698;BME280;51124;53.394;-6.294;2024-01-30T06:12:03;102052.80;;;12.82;10.26
64698;BME280;51124;53.394;-6.294;2024-01-30T06:14:30;102059.51;;;13.44;10.27
64698;BME280;51124;53.394;-6.294;2024-01-30T06:16:58;102058.45;;;13.41;9.94
64698;BME280;51124;53.394;-6.294;2024-01-30T06:19:25;102055.06;;;13.30;10.19
64698;BME280;51124;53.394;-6.294;2024-01-30T06:21:53;102063.48;;;14.79;10.43
64698;BME280;51124;53.394;-6.294;2024-01-30T06:24:20;102067.42;;;14.82;10.61
64698;BME280;51124;53.394;-6.294;2024-01-30T06:26:47;102070.95;;;13.82;10.67
64698;BME280;51124;53.394;-6.294;2024-01-30T06:29:15;102072.77;;;15.66;10.72
64698;BME280;51124;53.394;-6.294;2024-01-30T06:31:43;102084.12;;;16.11;11.31
64698;BME280;51124;53.394;-6.294;2024-01-30T06:34:10;102087.05;;;15.71;11.71
64698;BME280;51124;53.394;-6.294;2024-01-30T06:36:38;102096.99;;;15.98;11.69
64698;BME280;51124;53.394;-6.294;2024-01-30T06:39:06;102105.68;;;15.23;12.23
64698;BME280;51124;53.394;-6.294;2024-01-30T06:41:34;102099.60;;;15.73;12.15
64698;BME280;51124;53.394;-6.294;2024-01-30T06:44:02;102101.31;;;15.80;12.33
64698;BME280;51124;53.394;-6.294;2024-01-30T06:46:29;102103.04;;;15.36;12.39
64698;BME280;51124;53.394;-6.294;2024-01-30T06:48:57;102111.44;;;15.60;12.50
64698;BME280;51124;53.394;-6.294;2024-01-30T06:51:24;102109.50;;;15.04;12.68
64698;BME280;51124;53.394;-6.294;2024-01-30T06:53:52;102112.46;;;15.34;12.46
64698;BME280;51124;53.394;-6.294;2024-01-30T06:56:19;102111.00;;;15.32;12.62
64698;BME280;51124;53.394;-6.294;2024-01-30T06:58:47;102114.10;;;15.56;12.50
64698;BME280;51124;53.394;-6.294;2024-01-30T07:01:15;102115.01;;;15.48;12.61
64698;BME280;51124;53.394;-6.294;2024-01-30T07:03:43;102122.21;;;15.49;12.83
64698;BME280;51124;53.394;-6.294;2024-01-30T07:06:11;102125.42;;;15.29;12.50
64698;BME280;51124;53.394;-6.294;2024-01-30T07:08:38;102138.93;;;15.28;12.77
64698;BME280;51124;53.394;-6.294;2024-01-30T07:11:06;102141.76;;;14.68;12.64
64698;BME280;51124;53.394;-6.294;2024-01-30T07:13:34;102140.16;;;15.02;12.92
64698;BME280;51124;53.394;-6.294;2024-01-30T07:16:02;102146.83;;;15.52;12.69
64698;BME280;51124;53.394;-6.294;2024-01-30T07:18:30;102148.85;;;15.21;12.74
64698;BME280;51124;53.394;-6.294;2024-01-30T07:20:58;102145.76;;;13.66;12.63
64698;BME280;51124;53.394;-6.294;2024-01-30T07:23:25;102143.13;;;13.34;12.11
64698;BME280;51124;53.394;-6.294;2024-01-30T07:25:53;102148.90;;;13.29;11.72
64698;BME280;51124;53.394;-6.294;2024-01-30T07:28:20;102145.65;;;13.82;11.47
64698;BME280;51124;53.394;-6.294;2024-01-30T07:30:48;102142.96;;;14.12;11.39
64698;BME280;51124;53.394;-6.294;2024-01-30T07:33:15;102148.27;;;13.70;11.36
64698;BME280;51124;53.394;-6.294;2024-01-30T07:35:43;102148.57;;;12.85;11.25
64698;BME280;51124;53.394;-6.294;2024-01-30T07:38:10;102155.49;;;13.10;11.03
64698;BME280;51124;53.394;-6.294;2024-01-30T07:40:38;102166.02;;;13.01;10.85
64698;BME280;51124;53.394;-6.294;2024-01-30T07:43:05;102167.61;;;13.65;10.95
64698;BME280;51124;53.394;-6.294;2024-01-30T07:45:32;102179.37;;;13.09;10.78
64698;BME280;51124;53.394;-6.294;2024-01-30T07:48:00;102169.89;;;14.10;10.47
64698;BME280;51124;53.394;-6.294;2024-01-30T07:50:27;102176.55;;;13.78;10.44
64698;BME280;51124;53.394;-6.294;2024-01-30T07:52:55;102178.08;;;14.51;10.29
64698;BME280;51124;53.394;-6.294;2024-01-30T07:55:23;102181.78;;;14.63;9.83
64698;BME280;51124;53.394;-6.294;2024-01-30T07:57:51;102180.86;;;14.03;10.07
64698;BME280;51124;53.394;-6.294;2024-01-30T08:00:20;102188.76;;;14.61;10.01
64698;BME280;51124;53.394;-6.294;2024-01-30T08:02:47;102191.07;;;13.39;9.80
64698;BME280;51124;53.394;-6.294;2024-01-30T08:05:15;102197.56;;;14.59;9.66
64698;BME280;51124;53.394;-6.294;2024-01-30T08:07:42;102195.35;;;14.56;9.83
64698;BME280;51124;53.394;-6.294;2024-01-30T08:10:11;102193.04;;;14.70;9.72
64698;BME280;51124;53.394;-6.294;2024-01-30T08:12:38;102194.41;;;13.81;9.59
64698;BME280;51124;53.394;-6.294;2024-01-30T08:15:07;102195.23;;;13.97;9.62
64698;BME280;51124;53.394;-6.294;2024-01-30T08:17:34;102199.80;;;14.32;9.71
64698;BME280;51124;53.394;-6.294;2024-01-30T08:20:02;102208.23;;;14.47;9.68
64698;BME280;51124;53.394;-6.294;2024-01-30T08:22:29;102208.84;;;15.30;9.52
64698;BME280;51124;53.394;-6.294;2024-01-30T08:24:56;102214.47;;;13.64;9.87
64698;BME280;51124;53.394;-6.294;2024-01-30T08:27:24;102223.87;;;14.75;9.67
64698;BME280;51124;53.394;-6.294;2024-01-30T08:29:51;102227.87;;;13.74;9.79
64698;BME280;51124;53.394;-6.294;2024-01-30T08:32:19;102232.68;;;14.37;9.83
64698;BME280;51124;53.394;-6.294;2024-01-30T08:34:46;102235.43;;;14.10;9.68
64698;BME280;51124;53.394;-6.294;2024-01-30T08:37:13;102236.93;;;14.00;9.79
64698;BME280;51124;53.394;-6.294;2024-01-30T08:39:41;102237.82;;;13.83;9.86
64698;BME280;51124;53.394;-6.294;2024-01-30T08:42:08;102249.88;;;13.73;9.79
64698;BME280;51124;53.394;-6.294;2024-01-30T08:44:36;102247.78;;;14.46;10.00
64698;BME280;51124;53.394;-6.294;2024-01-30T08:47:03;102247.53;;;13.82;9.80
64698;BME280;51124;53.394;-6.294;2024-01-30T08:49:31;102245.45;;;13.90;9.60
64698;BME280;51124;53.394;-6.294;2024-01-30T08:51:58;102242.66;;;13.35;9.87
64698;BME280;51124;53.394;-6.294;2024-01-30T08:54:26;102241.78;;;14.16;9.96
64698;BME280;51124;53.394;-6.294;2024-01-30T08:56:53;102244.36;;;13.30;10.16
64698;BME280;51124;53.394;-6.294;2024-01-30T08:59:20;102246.59;;;13.94;10.12
64698;BME280;51124;53.394;-6.294;2024-01-30T09:01:48;102247.17;;;14.08;9.91
64698;BME280;51124;53.394;-6.294;2024-01-30T09:04:15;102252.88;;;13.26;9.89
64698;BME280;51124;53.394;-6.294;2024-01-30T09:06:43;102259.92;;;14.17;9.96
64698;BME280;51124;53.394;-6.294;2024-01-30T09:09:10;102258.93;;;13.10;10.21
64698;BME280;51124;53.394;-6.294;2024-01-30T09:11:37;102264.63;;;13.98;10.25
64698;BME280;51124;53.394;-6.294;2024-01-30T09:14:05;102269.78;;;13.84;10.13
64698;BME280;51124;53.394;-6.294;2024-01-30T09:16:32;102269.99;;;13.77;10.10
64698;BME280;51124;53.394;-6.294;2024-01-30T09:19:00;102274.90;;;13.51;10.16
64698;BME280;51124;53.394;-6.294;2024-01-30T09:21:27;102286.25;;;12.97;10.03
64698;BME280;51124;53.394;-6.294;2024-01-30T09:24:01;102285.87;;;14.04;10.06
64698;BME280;51124;53.394;-6.294;2024-01-30T09:26:28;102296.89;;;15.80;10.38
64698;BME280;51124;53.394;-6.294;2024-01-30T09:28:56;102304.57;;;15.91;10.73
64698;BME280;51124;53.394;-6.294;2024-01-30T09:31:23;102308.69;;;15.35;11.06
64698;BME280;51124;53.394;-6.294;2024-01-30T09:33:51;102314.27;;;14.46;10.92
64698;BME280;51124;53.394;-6.294;2024-01-30T09:36:18;102313.24;;;16.58;11.09
64698;BME280;51124;53.394;-6.294;2024-01-30T09:38:46;102313.89;;;16.03;11.39
64698;BME280;51124;53.394;-6.294;2024-01-30T09:41:14;102313.07;;;16.23;11.67
64698;BME280;51124;53.394;-6.294;2024-01-30T09:43:44;102321.08;;;16.20;12.00
64698;BME280;51124;53.394;-6.294;2024-01-30T09:46:17;102312.27;;;15.88;12.12
64698;BME280;51124;53.394;-6.294;2024-01-30T09:48:45;102318.66;;;16.67;11.96
64698;BME280;51124;53.394;-6.294;2024-01-30T09:51:14;102322.74;;;16.21;12.14
64698;BME280;51124;53.394;-6.294;2024-01-30T09:53:42;102325.22;;;16.06;12.07
64698;BME280;51124;53.394;-6.294;2024-01-30T09:56:10;102322.74;;;15.43;12.31
64698;BME280;51124;53.394;-6.294;2024-01-30T09:58:39;102324.96;;;15.54;12.34
64698;BME280;51124;53.394;-6.294;2024-01-30T10:01:07;102321.57;;;15.11;12.45
64698;BME280;51124;53.394;-6.294;2024-01-30T10:03:34;102324.87;;;15.89;12.31
64698;BME280;51124;53.394;-6.294;2024-01-30T10:06:03;102327.41;;;15.92;12.26
64698;BME280;51124;53.394;-6.294;2024-01-30T10:08:30;102333.65;;;15.47;12.30
64698;BME280;51124;53.394;-6.294;2024-01-30T10:10:58;102333.03;;;15.44;12.44
64698;BME280;51124;53.394;-6.294;2024-01-30T10:13:27;102335.31;;;15.28;12.47
64698;BME280;51124;53.394;-6.294;2024-01-30T10:15:55;102330.93;;;15.85;12.20
64698;BME280;51124;53.394;-6.294;2024-01-30T10:18:24;102329.86;;;15.83;12.28
64698;BME280;51124;53.394;-6.294;2024-01-30T10:20:52;102326.91;;;15.96;12.25
64698;BME280;51124;53.394;-6.294;2024-01-30T10:23:20;102332.85;;;15.71;12.22
64698;BME280;51124;53.394;-6.294;2024-01-30T10:25:47;102334.85;;;15.43;12.29
64698;BME280;51124;53.394;-6.294;2024-01-30T10:28:14;102331.50;;;13.79;12.23
64698;BME280;51124;53.394;-6.294;2024-01-30T10:30:42;102340.98;;;13.35;11.90
64698;BME280;51124;53.394;-6.294;2024-01-30T10:33:09;102343.55;;;13.04;11.50
64698;BME280;51124;53.394;-6.294;2024-01-30T10:35:37;102345.66;;;13.75;11.14
64698;BME280;51124;53.394;-6.294;2024-01-30T10:38:05;102346.89;;;14.79;10.69
64698;BME280;51124;53.394;-6.294;2024-01-30T10:40:35;102348.83;;;15.23;10.65
64698;BME280;51124;53.394;-6.294;2024-01-30T10:43:06;102342.94;;;13.96;10.53
64698;BME280;51124;53.394;-6.294;2024-01-30T10:45:37;102341.80;;;13.13;10.57
64698;BME280;51124;53.394;-6.294;2024-01-30T10:48:07;102346.32;;;13.77;10.50
64698;BME280;51124;53.394;-6.294;2024-01-30T10:50:36;102347.50;;;14.37;10.22
64698;BME280;51124;53.394;-6.294;2024-01-30T10:53:06;102348.62;;;13.61;10.23
64698;BME280;51124;53.394;-6.294;2024-01-30T10:55:35;102352.55;;;14.26;10.09
64698;BME280;51124;53.394;-6.294;2024-01-30T10:58:04;102354.86;;;14.02;9.98
64698;BME280;51124;53.394;-6.294;2024-01-30T11:00:32;102347.43;;;14.11;9.82
64698;BME280;51124;53.394;-6.294;2024-01-30T11:02:59;102352.30;;;14.31;9.79
64698;BME280;51124;53.394;-6.294;2024-01-30T11:05:27;102353.89;;;14.61;9.65
64698;BME280;51124;53.394;-6.294;2024-01-30T11:07:54;102362.74;;;13.48;9.76
64698;BME280;51124;53.394;-6.294;2024-01-30T11:10:22;102372.15;;;13.29;9.77
64698;BME280;51124;53.394;-6.294;2024-01-30T11:12:52;102364.55;;;13.84;9.75
64698;BME280;51124;53.394;-6.294;2024-01-30T11:15:19;102367.61;;;14.53;9.63
64698;BME280;51124;53.394;-6.294;2024-01-30T11:17:51;102370.20;;;14.41;9.66
64698;BME280;51124;53.394;-6.294;2024-01-30T11:20:22;102382.11;;;14.35;9.60
64698;BME280;51124;53.394;-6.294;2024-01-30T11:22:51;102374.89;;;14.66;9.46
64698;BME280;51124;53.394;-6.294;2024-01-30T11:25:20;102376.30;;;13.94;9.39
64698;BME280;51124;53.394;-6.294;2024-01-30T11:27:49;102380.75;;;14.75;9.44
64698;BME280;51124;53.394;-6.294;2024-01-30T11:30:25;102377.00;;;14.13;9.58
64698;BME280;51124;53.394;-6.294;2024-01-30T11:32:42;102375.35;;;13.81;9.41
64698;BME280;51124;53.394;-6.294;2024-01-30T11:35:10;102376.68;;;14.89;9.16
64698;BME280;51124;53.394;-6.294;2024-01-30T11:37:39;102376.19;;;14.16;9.31
64698;BME280;51124;53.394;-6.294;2024-01-30T11:40:07;102377.92;;;14.01;9.33
64698;BME280;51124;53.394;-6.294;2024-01-30T11:42:36;102376.13;;;14.47;9.24
64698;BME280;51124;53.394;-6.294;2024-01-30T11:45:05;102380.69;;;14.65;9.31
64698;BME280;51124;53.394;-6.294;2024-01-30T11:47:34;102379.46;;;14.18;9.38
64698;BME280;51124;53.394;-6.294;2024-01-30T11:50:02;102381.44;;;14.52;9.24
64698;BME280;51124;53.394;-6.294;2024-01-30T11:52:30;102378.18;;;14.95;9.23
64698;BME280;51124;53.394;-6.294;2024-01-30T11:54:57;102380.15;;;14.44;9.18
64698;BME280;51124;53.394;-6.294;2024-01-30T11:57:26;102376.93;;;14.58;9.19
64698;BME280;51124;53.394;-6.294;2024-01-30T11:59:53;102373.82;;;14.69;9.27
64698;BME280;51124;53.394;-6.294;2024-01-30T12:02:20;102365.89;;;15.97;9.10
64698;BME280;51124;53.394;-6.294;2024-01-30T12:04:48;102359.80;;;14.63;9.30
64698;BME280;51124;53.394;-6.294;2024-01-30T12:07:16;102355.87;;;14.32;9.36
64698;BME280;51124;53.394;-6.294;2024-01-30T12:09:51;102355.55;;;13.86;9.48
64698;BME280;51124;53.394;-6.294;2024-01-30T12:12:09;102351.44;;;14.35;9.46
64698;BME280;51124;53.394;-6.294;2024-01-30T12:14:36;102353.59;;;14.75;9.32
64698;BME280;51124;53.394;-6.294;2024-01-30T12:17:04;102353.29;;;14.12;9.48
64698;BME280;51124;53.394;-6.294;2024-01-30T12:19:32;102344.42;;;14.78;9.45
64698;BME280;51124;53.394;-6.294;2024-01-30T12:21:59;102338.25;;;14.03;9.45
64698;BME280;51124;53.394;-6.294;2024-01-30T12:24:27;102331.79;;;14.53;9.27
64698;BME280;51124;53.394;-6.294;2024-01-30T12:26:58;102334.10;;;14.54;9.27
64698;BME280;51124;53.394;-6.294;2024-01-30T12:29:26;102329.75;;;14.25;9.28
64698;BME280;51124;53.394;-6.294;2024-01-30T12:31:55;102329.69;;;16.20;9.22
64698;BME280;51124;53.394;-6.294;2024-01-30T12:34:22;102330.09;;;17.13;9.69
64698;BME280;51124;53.394;-6.294;2024-01-30T12:36:51;102331.27;;;16.69;10.05
64698;BME280;51124;53.394;-6.294;2024-01-30T12:39:19;102335.53;;;15.76;10.16
64698;BME280;51124;53.394;-6.294;2024-01-30T12:41:47;102322.19;;;14.97;10.19
64698;BME280;51124;53.394;-6.294;2024-01-30T12:44:15;102323.69;;;18.78;10.27